Time;durP1;ratioP1;P1;durP2;ratioP2;P2;SDS_P1;SDS_P2;PMS_P1;PMS_P2;Temp;Humidity;BMP_temperature;BMP_pressure;BME280_temperature;BME280_humidity;BME280_pressure;Samples;Min_cycle;Max_cycle;Signal;HPM_P1;HPM_P2
2021/08/08 00:01:03;;;;;;;58.00;2.40;;;14.50;94.60;;;;;;5072720;28;20613;-72
2021/08/08 00:03:30;;;;;;;58.27;2.80;;;14.50;94.40;;;;;;5074386;28;20481;-72
2021/08/08 00:05:57;;;;;;;58.17;2.50;;;14.60;93.90;;;;;;5074199;28;20570;-72
2021/08/08 00:08:28;;;;;;;58.10;2.70;;;14.60;93.80;;;;;;5074436;28;20448;-72
2021/08/08 00:10:55;;;;;;;57.97;2.40;;;14.70;92.60;;;;;;5073677;28;20505;-72
2021/08/08 00:13:22;;;;;;;57.77;2.40;;;14.80;90.90;;;;;;5074397;28;20528;-73
2021/08/08 00:15:51;;;;;;;58.07;2.50;;;14.90;91.00;;;;;;5073609;28;20536;-72
2021/08/08 00:18:18;;;;;;;58.10;2.70;;;14.90;90.30;;;;;;5074317;28;20553;-71
2021/08/08 00:20:45;;;;;;;57.67;2.40;;;14.90;89.10;;;;;;5073794;28;20891;-71
2021/08/08 00:23:12;;;;;;;58.00;2.37;;;15.00;87.50;;;;;;5074006;28;20878;-72
2021/08/08 00:25:39;;;;;;;58.37;2.60;;;15.00;86.40;;;;;;5073817;28;21063;-71
2021/08/08 00:28:07;;;;;;;57.97;2.57;;;15.00;83.60;;;;;;5073728;28;20449;-71
2021/08/08 00:30:34;;;;;;;58.00;2.40;;;15.00;83.00;;;;;;5073701;28;20466;-71
2021/08/08 00:33:02;;;;;;;58.00;2.40;;;15.00;81.30;;;;;;5067577;28;20548;-71
2021/08/08 00:35:29;;;;;;;57.87;2.50;;;15.00;80.50;;;;;;5053852;28;20889;-71
2021/08/08 00:37:56;;;;;;;57.97;2.50;;;15.00;80.00;;;;;;5053077;28;20450;-71
2021/08/08 00:40:23;;;;;;;57.83;2.70;;;15.00;76.90;;;;;;5053673;28;20565;-71
2021/08/08 00:42:50;;;;;;;58.03;2.43;;;15.00;74.40;;;;;;5053765;28;20452;-71
2021/08/08 00:45:18;;;;;;;57.87;2.50;;;15.00;73.60;;;;;;5053487;28;20457;-71
2021/08/08 00:47:46;;;;;;;58.07;2.60;;;15.00;73.20;;;;;;5053758;28;20894;-71
2021/08/08 00:50:15;;;;;;;57.83;2.40;;;14.90;74.70;;;;;;5053193;28;20465;-71
2021/08/08 00:52:43;;;;;;;57.87;2.53;;;14.90;76.30;;;;;;5053405;28;20908;-71
2021/08/08 00:55:11;;;;;;;57.97;2.53;;;14.90;77.50;;;;;;5053324;28;20458;-71
2021/08/08 00:57:38;;;;;;;58.13;2.50;;;14.90;78.20;;;;;;5053466;28;20839;-71
2021/08/08 01:00:08;;;;;;;57.87;2.40;;;14.90;79.20;;;;;;5052962;28;20446;-71
2021/08/08 01:02:37;;;;;;;57.97;2.57;;;14.80;80.10;;;;;;5053293;28;20532;-71
2021/08/08 01:05:06;;;;;;;57.97;2.47;;;14.90;81.60;;;;;;5051714;28;20451;-71
2021/08/08 01:07:40;;;;;;;58.03;2.50;;;14.80;82.30;;;;;;5053187;28;20493;-71
2021/08/08 01:10:08;;;;;;;57.97;2.50;;;14.80;83.30;;;;;;5052795;28;20450;-71
2021/08/08 01:12:38;;;;;;;57.87;2.40;;;14.80;84.70;;;;;;5053304;28;20480;-71
2021/08/08 01:15:07;;;;;;;57.87;2.37;;;14.80;84.60;;;;;;5053090;28;20446;-71
2021/08/08 01:17:34;;;;;;;57.90;2.30;;;14.80;85.30;;;;;;5052607;28;20442;-71
2021/08/08 01:20:04;;;;;;;57.93;2.33;;;14.70;85.40;;;;;;5052591;28;20482;-71
2021/08/08 01:22:33;;;;;;;58.10;2.80;;;14.80;86.60;;;;;;5052863;28;21050;-71
2021/08/08 01:25:06;;;;;;;58.07;2.40;;;14.80;87.10;;;;;;5053010;28;20480;-71
2021/08/08 01:27:33;;;;;;;57.93;2.43;;;14.70;90.90;;;;;;5051298;28;20493;-71
2021/08/08 01:30:01;;;;;;;57.97;2.37;;;14.70;89.20;;;;;;5052355;28;20540;-71
2021/08/08 01:32:29;;;;;;;57.97;2.50;;;14.70;90.20;;;;;;5052818;28;20868;-71
2021/08/08 01:34:56;;;;;;;58.03;2.40;;;14.70;91.10;;;;;;5052757;28;20565;-71
2021/08/08 01:37:23;;;;;;;58.03;2.40;;;14.60;91.40;;;;;;5053528;28;20457;-71
2021/08/08 01:39:55;;;;;;;57.83;2.40;;;14.60;91.50;;;;;;5072354;28;20452;-71
2021/08/08 01:42:24;;;;;;;58.17;2.67;;;14.60;91.70;;;;;;5072191;28;20480;-71
2021/08/08 01:44:54;;;;;;;58.00;2.40;;;14.60;91.40;;;;;;5072614;28;20543;-71
2021/08/08 01:47:26;;;;;;;57.93;2.53;;;14.60;91.80;;;;;;5072730;28;20480;-71
2021/08/08 01:49:55;;;;;;;57.93;2.40;;;14.60;91.70;;;;;;5054273;28;20453;-71
2021/08/08 01:52:22;;;;;;;57.97;2.60;;;14.60;91.80;;;;;;5052108;28;20474;-71
2021/08/08 01:54:49;;;;;;;57.87;2.43;;;14.60;91.60;;;;;;5052487;28;20453;-71
2021/08/08 01:57:16;;;;;;;57.87;2.47;;;14.60;91.40;;;;;;5052788;28;20485;-71
2021/08/08 01:59:45;;;;;;;58.07;2.50;;;14.60;91.00;;;;;;5051941;28;20535;-70
2021/08/08 02:02:13;;;;;;;57.73;2.50;;;14.70;90.70;;;;;;5052078;28;20476;-71
2021/08/08 02:04:41;;;;;;;58.17;2.50;;;14.70;89.90;;;;;;5052218;28;20962;-71
2021/08/08 02:07:10;;;;;;;57.90;2.40;;;14.70;89.60;;;;;;5051987;28;20488;-71
2021/08/08 02:09:37;;;;;;;57.77;2.40;;;14.70;89.90;;;;;;5053326;28;20946;-71
2021/08/08 02:12:05;;;;;;;57.83;2.37;;;14.70;90.00;;;;;;5072062;28;20571;-71
2021/08/08 02:14:31;;;;;;;57.73;2.30;;;14.60;89.50;;;;;;5072099;28;20457;-71
2021/08/08 02:17:00;;;;;;;57.97;2.37;;;14.60;89.50;;;;;;5072093;28;20908;-71
2021/08/08 02:19:27;;;;;;;57.87;2.40;;;14.60;89.80;;;;;;5071970;28;20544;-71
2021/08/08 02:21:54;;;;;;;58.10;2.50;;;14.50;90.20;;;;;;5071840;28;20483;-71
2021/08/08 02:24:21;;;;;;;57.83;2.33;;;14.50;90.50;;;;;;5071958;28;20535;-71
2021/08/08 02:26:48;;;;;;;58.00;2.30;;;14.40;90.80;;;;;;5071825;28;20516;-71
2021/08/08 02:29:15;;;;;;;58.17;2.50;;;14.40;90.90;;;;;;5071622;28;20479;-71
2021/08/08 02:31:45;;;;;;;57.93;2.60;;;14.40;90.80;;;;;;5071753;28;20592;-71
2021/08/08 02:34:14;;;;;;;57.77;2.40;;;14.40;90.70;;;;;;5071811;28;20445;-71
2021/08/08 02:36:41;;;;;;;58.07;2.30;;;14.30;90.30;;;;;;5071737;28;20764;-71
2021/08/08 02:39:08;;;;;;;57.83;2.47;;;14.30;90.20;;;;;;5071113;28;20455;-71
2021/08/08 02:41:35;;;;;;;57.80;2.50;;;14.30;90.00;;;;;;5071165;28;20472;-71
2021/08/08 02:44:02;;;;;;;57.87;2.60;;;14.30;90.50;;;;;;5050990;28;20454;-71
2021/08/08 02:46:29;;;;;;;57.97;2.50;;;14.20;90.50;;;;;;5051378;28;20935;-71
2021/08/08 02:48:57;;;;;;;58.10;2.40;;;14.20;90.70;;;;;;5051750;28;20536;-71
2021/08/08 02:51:25;;;;;;;57.97;2.40;;;14.20;91.10;;;;;;5051410;28;20461;-71
2021/08/08 02:53:52;;;;;;;58.13;2.60;;;14.20;91.80;;;;;;5051442;28;20489;-71
2021/08/08 02:56:18;;;;;;;58.03;2.50;;;14.10;91.70;;;;;;5051482;28;20449;-72
2021/08/08 02:58:45;;;;;;;57.87;2.50;;;14.10;91.80;;;;;;5051547;28;20475;-71
2021/08/08 03:01:12;;;;;;;58.07;2.50;;;14.10;91.80;;;;;;5051057;28;21079;-71
2021/08/08 03:03:39;;;;;;;57.97;2.40;;;14.00;91.80;;;;;;5051602;28;20488;-71
2021/08/08 03:06:10;;;;;;;58.00;2.60;;;13.90;91.90;;;;;;5051412;28;20536;-71
2021/08/08 03:08:39;;;;;;;58.03;2.50;;;13.80;91.90;;;;;;5051515;28;20455;-71
2021/08/08 03:11:06;;;;;;;57.97;2.50;;;13.80;92.40;;;;;;5051166;28;20472;-71
2021/08/08 03:13:33;;;;;;;57.87;2.50;;;13.70;92.60;;;;;;5051275;28;20528;-71
2021/08/08 03:16:00;;;;;;;58.00;2.57;;;13.70;92.90;;;;;;5049690;28;20545;-71
2021/08/08 03:18:27;;;;;;;58.17;2.50;;;13.60;93.00;;;;;;5051574;28;20493;-71
2021/08/08 03:20:54;;;;;;;58.27;2.60;;;13.60;93.50;;;;;;5051018;28;20472;-71
2021/08/08 03:23:20;;;;;;;58.47;2.67;;;13.50;93.70;;;;;;5051298;28;20480;-71
2021/08/08 03:25:49;;;;;;;58.13;2.60;;;13.50;93.80;;;;;;5051107;28;20453;-71
2021/08/08 03:28:16;;;;;;;58.30;2.50;;;13.50;94.30;;;;;;5051506;28;20575;-71
2021/08/08 03:30:42;;;;;;;58.80;2.80;;;13.50;94.60;;;;;;5051011;28;20905;-72
2021/08/08 03:33:09;;;;;;;59.17;3.20;;;13.50;95.00;;;;;;5051089;28;20463;-72
2021/08/08 03:35:36;;;;;;;58.07;2.50;;;13.50;95.60;;;;;;5051098;28;20450;-72
2021/08/08 03:38:04;;;;;;;58.07;2.50;;;13.50;96.10;;;;;;5051317;28;20448;-72
2021/08/08 03:40:31;;;;;;;58.13;2.50;;;13.50;96.30;;;;;;5050634;28;20479;-71
2021/08/08 03:42:59;;;;;;;58.03;2.60;;;13.40;96.50;;;;;;5050824;28;20477;-71
2021/08/08 03:45:26;;;;;;;58.40;2.90;;;13.40;96.60;;;;;;5050908;28;20491;-71
2021/08/08 03:47:53;;;;;;;58.10;2.50;;;13.40;96.80;;;;;;5065607;28;20497;-72
2021/08/08 03:50:20;;;;;;;58.13;2.80;;;13.40;96.70;;;;;;5071178;28;20534;-72
2021/08/08 03:52:46;;;;;;;58.10;2.70;;;13.30;96.60;;;;;;5074600;28;20877;-72
2021/08/08 03:55:13;;;;;;;58.23;2.70;;;13.40;96.80;;;;;;5074494;28;20534;-72
2021/08/08 03:57:40;;;;;;;58.17;2.43;;;13.40;96.90;;;;;;5074763;28;20479;-72
2021/08/08 04:00:10;;;;;;;58.30;2.80;;;13.40;97.30;;;;;;5074261;28;20963;-72
2021/08/08 04:02:37;;;;;;;58.20;2.43;;;13.30;97.50;;;;;;5074485;28;20885;-72
2021/08/08 04:05:04;;;;;;;58.03;2.50;;;13.40;97.80;;;;;;5074430;28;20531;-72
2021/08/08 04:07:32;;;;;;;58.10;2.60;;;13.30;97.70;;;;;;5074144;28;20850;-72
2021/08/08 04:09:58;;;;;;;58.07;2.53;;;13.30;98.00;;;;;;5073939;28;20454;-72
2021/08/08 04:12:25;;;;;;;58.07;2.70;;;13.30;98.20;;;;;;5074566;28;20570;-72
2021/08/08 04:14:52;;;;;;;58.20;2.50;;;13.30;98.20;;;;;;5074441;28;20940;-71
2021/08/08 04:17:20;;;;;;;58.20;2.60;;;13.30;98.20;;;;;;5073854;28;20448;-72
2021/08/08 04:19:47;;;;;;;58.17;2.67;;;13.20;98.30;;;;;;5054588;28;20453;-72
2021/08/08 04:22:14;;;;;;;58.13;2.60;;;13.20;98.30;;;;;;5053937;28;20942;-72
2021/08/08 04:24:41;;;;;;;58.07;2.60;;;13.10;98.40;;;;;;5053956;28;20539;-72
2021/08/08 04:27:08;;;;;;;58.17;2.90;;;13.10;98.50;;;;;;5054037;28;20480;-72
2021/08/08 04:29:34;;;;;;;57.97;2.57;;;13.10;98.70;;;;;;5053723;28;20502;-72
2021/08/08 04:32:01;;;;;;;57.87;2.50;;;13.20;98.70;;;;;;5053978;28;20496;-72
2021/08/08 04:34:31;;;;;;;58.20;2.60;;;13.10;99.00;;;;;;5053743;28;20459;-72
2021/08/08 04:36:58;;;;;;;58.03;2.53;;;13.10;99.30;;;;;;5053463;28;20959;-72
2021/08/08 04:39:25;;;;;;;58.07;2.53;;;13.10;99.60;;;;;;5053662;28;20819;-72
2021/08/08 04:41:53;;;;;;;58.20;2.70;;;13.10;99.60;;;;;;5053910;28;20504;-72
2021/08/08 04:44:20;;;;;;;58.07;2.40;;;13.10;99.80;;;;;;5053458;28;20448;-72
2021/08/08 04:46:47;;;;;;;58.00;2.67;;;13.10;99.90;;;;;;5053557;28;20512;-72
2021/08/08 04:49:14;;;;;;;57.97;2.60;;;13.10;99.90;;;;;;5053300;28;20454;-72
2021/08/08 04:51:42;;;;;;;58.37;2.67;;;13.10;99.90;;;;;;5052149;28;20930;-72
2021/08/08 04:54:09;;;;;;;58.07;2.50;;;13.10;99.90;;;;;;5053500;28;20534;-72
2021/08/08 04:56:36;;;;;;;57.97;2.50;;;13.10;99.90;;;;;;5053462;28;20544;-72
2021/08/08 04:59:03;;;;;;;57.97;2.50;;;13.10;99.90;;;;;;5053606;28;20847;-72
2021/08/08 05:01:30;;;;;;;58.17;2.60;;;13.10;99.90;;;;;;5052982;28;20914;-72
2021/08/08 05:03:57;;;;;;;58.23;2.80;;;13.10;99.90;;;;;;5053286;28;20533;-72
2021/08/08 05:06:24;;;;;;;58.27;2.57;;;13.10;99.90;;;;;;5053412;28;20448;-72
2021/08/08 05:08:52;;;;;;;58.07;2.53;;;13.20;99.90;;;;;;5053263;28;20514;-72
2021/08/08 05:11:19;;;;;;;58.03;2.57;;;13.20;99.90;;;;;;5052839;28;20505;-72
2021/08/08 05:13:46;;;;;;;57.97;2.57;;;13.20;99.90;;;;;;5053090;28;20949;-72
2021/08/08 05:16:13;;;;;;;58.13;2.50;;;13.30;99.90;;;;;;5053072;28;20448;-72
2021/08/08 05:18:40;;;;;;;58.13;2.47;;;13.30;99.90;;;;;;5052864;28;20440;-72
2021/08/08 05:21:07;;;;;;;58.17;2.60;;;13.40;99.90;;;;;;5052478;28;20484;-71
2021/08/08 05:23:35;;;;;;;57.97;2.50;;;13.40;99.90;;;;;;5051836;28;20483;-72
2021/08/08 05:26:04;;;;;;;58.10;2.43;;;13.40;99.90;;;;;;5052998;28;20459;-72
2021/08/08 05:28:31;;;;;;;58.13;2.57;;;13.50;99.90;;;;;;5053135;28;20488;-72
2021/08/08 05:30:57;;;;;;;57.97;2.70;;;13.60;99.90;;;;;;5052411;28;20478;-72
2021/08/08 05:33:24;;;;;;;57.67;2.60;;;13.60;99.90;;;;;;5052507;28;21027;-72
2021/08/08 05:35:52;;;;;;;57.93;2.50;;;13.70;99.90;;;;;;5052652;28;20540;-72
2021/08/08 05:38:19;;;;;;;58.00;2.43;;;13.80;99.90;;;;;;5052722;28;20449;-72
2021/08/08 05:40:46;;;;;;;57.97;2.60;;;13.90;99.90;;;;;;5052281;28;20551;-72
2021/08/08 05:43:14;;;;;;;57.77;2.50;;;14.00;99.90;;;;;;5052917;28;20452;-72
2021/08/08 05:45:46;;;;;;;57.97;2.90;;;14.10;99.90;;;;;;5052829;28;20886;-72
2021/08/08 05:48:12;;;;;;;57.93;2.60;;;14.20;99.90;;;;;;5052804;28;20492;-72
2021/08/08 05:50:39;;;;;;;58.17;2.50;;;14.30;99.90;;;;;;5052390;28;21016;-72
2021/08/08 05:53:06;;;;;;;58.13;2.63;;;14.30;99.90;;;;;;5052650;28;20535;-72
2021/08/08 05:55:35;;;;;;;58.00;2.40;;;14.40;99.90;;;;;;5072714;28;20530;-72
2021/08/08 05:58:02;;;;;;;58.07;2.80;;;14.50;99.90;;;;;;5072553;28;20448;-72
2021/08/08 06:00:30;;;;;;;57.77;2.40;;;14.50;99.90;;;;;;5071679;28;20576;-72
2021/08/08 06:02:57;;;;;;;58.20;2.50;;;14.60;99.90;;;;;;5072371;28;20527;-72
2021/08/08 06:05:23;;;;;;;58.07;2.70;;;14.60;99.90;;;;;;5071937;28;20543;-72
2021/08/08 06:07:50;;;;;;;57.97;2.50;;;14.70;99.90;;;;;;5072077;28;20476;-72
2021/08/08 06:10:17;;;;;;;57.73;2.40;;;14.80;99.90;;;;;;5071660;28;20472;-72
2021/08/08 06:12:44;;;;;;;57.83;2.43;;;14.80;99.90;;;;;;5071708;28;21030;-72
2021/08/08 06:15:11;;;;;;;57.97;2.30;;;14.90;97.00;;;;;;5071821;28;20549;-72
2021/08/08 06:17:39;;;;;;;58.07;2.40;;;15.00;96.20;;;;;;5072055;28;20832;-72
2021/08/08 06:20:08;;;;;;;58.03;2.40;;;15.00;92.10;;;;;;5071612;28;20894;-72
2021/08/08 06:22:35;;;;;;;57.97;2.40;;;15.10;91.10;;;;;;5071883;28;20884;-72
2021/08/08 06:25:02;;;;;;;57.63;2.40;;;15.10;88.30;;;;;;5071028;28;20888;-72
2021/08/08 06:27:29;;;;;;;58.00;2.70;;;15.20;89.50;;;;;;5070868;28;20564;-72
2021/08/08 06:29:56;;;;;;;58.07;2.30;;;15.20;87.20;;;;;;5071580;28;20536;-72
2021/08/08 06:32:23;;;;;;;57.77;2.50;;;15.30;73.00;;;;;;5071854;28;20571;-72
2021/08/08 06:34:51;;;;;;;58.03;2.50;;;15.30;73.80;;;;;;5071986;28;20541;-72
2021/08/08 06:37:18;;;;;;;57.77;2.37;;;15.40;73.20;;;;;;5071732;28;20489;-72
2021/08/08 06:39:45;;;;;;;58.10;2.40;;;15.40;68.80;;;;;;5071367;28;20454;-70
2021/08/08 06:42:12;;;;;;;58.17;2.90;;;15.50;73.20;;;;;;5071392;28;20553;-70
2021/08/08 06:44:38;;;;;;;57.57;2.50;;;15.60;64.50;;;;;;5071732;28;20455;-70
2021/08/08 06:47:05;;;;;;;58.17;2.30;;;15.60;35.60;;;;;;5071319;28;20984;-70
2021/08/08 06:49:32;;;;;;;57.93;2.73;;;15.70;48.80;;;;;;5071343;28;20820;-70
2021/08/08 06:52:00;;;;;;;57.77;2.50;;;15.70;62.70;;;;;;5071462;28;20479;-69
2021/08/08 06:54:27;;;;;;;57.97;2.33;;;15.70;61.90;;;;;;5071506;28;20446;-70
2021/08/08 06:56:54;;;;;;;57.77;2.30;;;15.80;44.70;;;;;;5071108;28;20941;-69
2021/08/08 06:59:21;;;;;;;57.97;2.80;;;15.90;1.00;;;;;;5068179;28;20532;-69
2021/08/08 07:01:48;;;;;;;57.27;2.20;;;16.00;1.00;;;;;;5071485;28;20497;-69
2021/08/08 07:04:16;;;;;;;57.67;2.50;;;16.10;1.00;;;;;;5071428;28;20533;-74
2021/08/08 07:06:43;;;;;;;57.87;2.40;;;16.30;1.00;;;;;;5071419;28;20450;-75
2021/08/08 07:09:12;;;;;;;57.57;2.60;;;16.40;1.00;;;;;;5070807;28;21080;-75
2021/08/08 07:11:40;;;;;;;57.73;2.13;;;16.40;1.00;;;;;;5071430;28;20489;-76
2021/08/08 07:14:07;;;;;;;57.77;2.23;;;16.40;1.00;;;;;;5071547;28;20470;-75
2021/08/08 07:16:34;;;;;;;57.97;2.27;;;16.40;1.00;;;;;;5070889;28;20974;-75
2021/08/08 07:19:02;;;;;;;57.90;2.20;;;16.40;1.00;;;;;;5071314;28;20537;-76
2021/08/08 07:21:29;;;;;;;57.77;2.20;;;16.40;1.00;;;;;;5070834;28;20510;-76
2021/08/08 07:23:58;;;;;;;57.87;2.20;;;16.50;1.00;;;;;;5071252;28;20909;-75
2021/08/08 07:26:29;;;;;;;57.80;2.60;;;16.60;1.00;;;;;;5073632;28;20466;-76
2021/08/08 07:28:56;;;;;;;57.77;2.20;;;16.60;1.00;;;;;;5072636;28;20494;-78
2021/08/08 07:31:24;;;;;;;57.60;2.13;;;16.60;1.00;;;;;;5054804;28;20479;-76
2021/08/08 07:33:51;;;;;;;57.83;2.30;;;16.80;1.00;;;;;;5054532;28;20549;-77
2021/08/08 07:36:19;;;;;;;57.87;2.27;;;16.80;1.00;;;;;;5055352;28;20462;-76
2021/08/08 07:38:46;;;;;;;58.00;2.27;;;16.80;1.00;;;;;;5055032;28;20487;-75
2021/08/08 07:41:14;;;;;;;57.47;2.30;;;16.80;1.00;;;;;;5054202;28;20990;-77
2021/08/08 07:43:43;;;;;;;57.87;2.20;;;16.80;1.00;;;;;;5054977;28;20555;-78
2021/08/08 07:46:10;;;;;;;57.77;2.27;;;16.90;1.00;;;;;;5055019;28;20800;-77
2021/08/08 07:48:37;;;;;;;58.00;2.30;;;17.00;1.00;;;;;;5054572;28;20913;-76
2021/08/08 07:51:04;;;;;;;57.70;2.50;;;16.90;1.00;;;;;;5054590;28;20558;-76
2021/08/08 07:53:31;;;;;;;57.47;2.27;;;17.10;1.00;;;;;;5054956;28;20973;-77
2021/08/08 07:55:58;;;;;;;57.73;2.07;;;17.30;1.00;;;;;;5054617;28;20490;-76
2021/08/08 07:58:25;;;;;;;57.80;2.13;;;17.60;1.00;;;;;;5054897;28;21000;-75
2021/08/08 08:00:53;;;;;;;58.00;2.40;;;17.80;1.00;;;;;;5056698;28;20561;-76
2021/08/08 08:03:20;;;;;;;57.63;2.20;;;17.90;1.00;;;;;;5074443;28;20458;-76
2021/08/08 08:05:47;;;;;;;57.47;2.03;;;18.00;1.00;;;;;;5074404;28;20455;-76
2021/08/08 08:08:14;;;;;;;57.70;2.10;;;18.00;1.00;;;;;;5074382;28;20570;-77
2021/08/08 08:10:41;;;;;;;58.03;2.13;;;18.00;1.00;;;;;;5074378;28;20990;-77
2021/08/08 08:13:08;;;;;;;57.80;2.20;;;18.00;1.00;;;;;;5074892;28;20813;-75
2021/08/08 08:15:35;;;;;;;57.90;2.40;;;18.20;1.00;;;;;;5074253;28;20487;-76
2021/08/08 08:18:03;;;;;;;57.87;2.30;;;18.20;1.00;;;;;;5074053;28;20987;-76
2021/08/08 08:20:30;;;;;;;57.90;2.20;;;18.40;1.00;;;;;;5074037;28;20474;-76
2021/08/08 08:22:57;;;;;;;58.00;2.20;;;18.40;1.00;;;;;;5074341;28;20448;-76
2021/08/08 08:25:24;;;;;;;57.20;2.33;;;18.40;1.00;;;;;;5074274;28;20480;-77
2021/08/08 08:27:52;;;;;;;57.87;2.30;;;18.20;1.00;;;;;;5074028;28;20945;-78
2021/08/08 08:30:19;;;;;;;57.57;2.20;;;18.20;1.00;;;;;;5073495;28;20894;-78
2021/08/08 08:32:46;;;;;;;57.63;2.13;;;18.20;1.00;;;;;;5071588;28;20463;-77
2021/08/08 08:35:15;;;;;;;57.53;2.10;;;18.20;1.00;;;;;;5074265;28;20638;-76
2021/08/08 08:37:42;;;;;;;57.47;2.00;;;18.50;1.00;;;;;;5073403;28;20483;-77
2021/08/08 08:40:09;;;;;;;57.87;2.50;;;18.60;1.00;;;;;;5073452;28;20480;-76
2021/08/08 08:42:46;;;;;;;58.20;2.83;;;18.80;1.00;;;;;;5073907;28;20443;-77
2021/08/08 08:45:14;;;;;;;57.63;2.10;;;18.90;1.00;;;;;;5074138;28;20823;-76
2021/08/08 08:47:42;;;;;;;58.07;2.13;;;19.10;1.00;;;;;;5073312;28;20540;-76
2021/08/08 08:50:11;;;;;;;61.27;3.77;;;19.10;1.00;;;;;;5072970;28;20449;-74
2021/08/08 08:52:40;;;;;;;57.57;1.93;;;19.20;1.00;;;;;;5073972;28;20988;-76
2021/08/08 08:55:08;;;;;;;57.87;2.33;;;19.30;1.00;;;;;;5073540;28;20564;-76
2021/08/08 08:57:37;;;;;;;57.37;2.00;;;19.50;1.00;;;;;;5073242;28;20444;-77
2021/08/08 09:00:06;;;;;;;57.97;2.37;;;19.60;1.00;;;;;;5073441;28;20449;-77
2021/08/08 09:02:33;;;;;;;57.90;2.30;;;19.40;1.00;;;;;;5073199;28;20958;-76
2021/08/08 09:05:00;;;;;;;57.77;2.30;;;19.20;1.00;;;;;;5071555;28;20454;-77
2021/08/08 09:07:27;;;;;;;58.40;2.10;;;19.10;1.00;;;;;;5073250;28;20456;-77
2021/08/08 09:09:56;;;;;;;57.80;2.20;;;19.20;1.00;;;;;;5072743;28;20486;-77
2021/08/08 09:12:24;;;;;;;58.40;2.50;;;19.30;1.00;;;;;;5073129;28;20577;-76
2021/08/08 09:14:58;;;;;;;57.90;2.20;;;19.60;1.00;;;;;;5073168;28;20544;-76
2021/08/08 09:17:25;;;;;;;58.00;2.13;;;19.70;1.00;;;;;;5073371;28;20929;-76
2021/08/08 09:19:59;;;;;;;57.97;2.10;;;19.80;1.00;;;;;;5072850;28;20534;-76
2021/08/08 09:22:28;;;;;;;57.77;2.10;;;20.10;1.00;;;;;;5072686;28;20838;-74
2021/08/08 09:24:57;;;;;;;57.73;2.13;;;20.20;1.00;;;;;;5072790;28;20943;-74
2021/08/08 09:27:34;;;;;;;57.57;2.20;;;20.40;1.00;;;;;;5073063;28;20606;-72
2021/08/08 09:30:01;;;;;;;57.57;2.10;;;20.60;1.00;;;;;;5072466;28;20836;-73
2021/08/08 09:32:32;;;;;;;57.67;2.20;;;20.90;1.00;;;;;;5072745;28;20548;-72
2021/08/08 09:35:06;;;;;;;57.57;2.40;;;20.80;1.00;;;;;;5071823;28;20827;-72
2021/08/08 09:37:33;;;;;;;57.73;2.30;;;20.90;1.00;;;;;;5072605;28;20534;-74
2021/08/08 09:40:02;;;;;;;57.57;2.00;;;21.00;1.00;;;;;;5072230;28;20454;-74
2021/08/08 09:42:31;;;;;;;58.07;2.40;;;20.80;1.00;;;;;;5072519;28;20479;-75
2021/08/08 09:45:01;;;;;;;58.07;2.20;;;20.80;1.00;;;;;;5072739;28;20484;-75
2021/08/08 09:47:38;;;;;;;57.83;2.10;;;20.90;1.00;;;;;;5072169;28;20546;-75
2021/08/08 09:50:07;;;;;;;57.97;2.30;;;21.20;1.00;;;;;;5071648;28;20526;-75
2021/08/08 09:52:34;;;;;;;58.00;2.17;;;21.40;1.00;;;;;;5072120;28;20490;-74
2021/08/08 09:55:03;;;;;;;57.37;2.00;;;21.60;1.00;;;;;;5072147;28;20547;-76
2021/08/08 09:57:39;;;;;;;57.53;2.00;;;21.70;1.00;;;;;;5072069;28;20490;-75
2021/08/08 10:00:07;;;;;;;57.63;2.07;;;22.10;1.00;;;;;;5071939;28;20443;-75
2021/08/08 10:02:35;;;;;;;57.60;2.00;;;22.30;1.00;;;;;;5072398;28;20452;-75
2021/08/08 10:05:02;;;;;;;57.80;1.90;;;22.60;1.00;;;;;;5072228;28;20489;-74
2021/08/08 10:07:30;;;;;;;57.63;2.10;;;22.70;1.00;;;;;;5072154;28;20534;-75
2021/08/08 10:09:58;;;;;;;58.00;2.63;;;22.60;1.00;;;;;;5071907;28;20478;-75
2021/08/08 10:12:51;;;;;;;57.80;2.30;;;22.60;1.00;;;;;;5071939;28;20471;-73
2021/08/08 10:15:19;;;;;;;57.53;2.17;;;22.80;1.00;;;;;;5059072;28;20458;-74
2021/08/08 10:17:49;;;;;;;58.00;2.77;;;22.70;1.00;;;;;;5051905;28;20453;-73
2021/08/08 10:20:17;;;;;;;57.67;2.10;;;22.50;1.00;;;;;;5051540;28;20956;-73
2021/08/08 10:22:45;;;;;;;57.43;2.20;;;22.50;1.00;;;;;;5052137;28;20501;-73
2021/08/08 10:25:12;;;;;;;58.27;3.00;;;22.60;1.00;;;;;;5052098;28;20444;-73
2021/08/08 10:27:41;;;;;;;57.67;2.10;;;22.50;1.00;;;;;;5051900;28;20830;-72
2021/08/08 10:30:08;;;;;;;57.60;2.10;;;22.50;1.00;;;;;;5050131;28;20577;-74
2021/08/08 10:32:36;;;;;;;57.53;2.00;;;22.60;1.00;;;;;;5053200;28;20452;-74
2021/08/08 10:35:12;;;;;;;57.57;2.03;;;22.80;1.00;;;;;;5067999;28;20464;-74
2021/08/08 10:37:39;;;;;;;57.63;2.10;;;23.60;1.00;;;;;;5071647;28;21003;-76
2021/08/08 10:40:07;;;;;;;57.90;2.43;;;25.40;1.00;;;;;;5071452;28;20875;-74
2021/08/08 10:42:43;;;;;;;57.43;1.93;;;27.30;1.00;;;;;;5071880;28;20453;-74
2021/08/08 10:45:22;;;;;;;57.43;2.20;;;28.40;1.00;;;;;;5071780;28;20497;-73
2021/08/08 10:47:55;;;;;;;57.37;1.90;;;28.80;1.00;;;;;;5071531;28;20865;-73
2021/08/08 10:50:22;;;;;;;57.90;1.83;;;29.10;1.00;;;;;;5071375;28;20485;-74
2021/08/08 10:52:49;;;;;;;57.17;2.07;;;29.50;1.00;;;;;;5071686;28;20454;-73
2021/08/08 10:55:23;;;;;;;57.57;2.20;;;30.00;1.00;;;;;;5071782;28;20482;-74
2021/08/08 10:57:52;;;;;;;57.23;1.90;;;30.40;1.00;;;;;;5071612;28;20465;-73
2021/08/08 11:00:19;;;;;;;57.37;1.90;;;30.70;1.00;;;;;;5072735;28;20530;-74
2021/08/08 11:02:47;;;;;;;57.40;2.10;;;31.10;1.00;;;;;;5075976;28;20863;-74
2021/08/08 11:05:16;;;;;;;57.30;1.80;;;31.40;1.00;;;;;;5075925;28;20450;-74
2021/08/08 11:07:44;;;;;;;57.07;2.00;;;31.30;1.00;;;;;;5075598;28;20463;-74
2021/08/08 11:10:11;;;;;;;57.23;1.90;;;30.20;1.00;;;;;;5075102;28;20581;-75
2021/08/08 11:12:40;;;;;;;57.27;1.80;;;30.40;1.00;;;;;;5075390;28;20483;-74
2021/08/08 11:15:10;;;;;;;57.40;2.10;;;31.00;1.00;;;;;;5075304;28;20542;-72
2021/08/08 11:17:38;;;;;;;57.17;1.90;;;31.30;1.00;;;;;;5075417;28;20494;-72
2021/08/08 11:20:05;;;;;;;57.20;1.80;;;30.90;1.00;;;;;;5075214;28;20450;-73
2021/08/08 11:22:32;;;;;;;57.07;1.80;;;31.30;1.00;;;;;;5075307;28;20462;-73
2021/08/08 11:25:01;;;;;;;57.30;1.73;;;32.30;1.00;;;;;;5075536;28;20516;-75
2021/08/08 11:27:30;;;;;;;57.07;1.80;;;32.80;1.00;;;;;;5075086;28;20482;-76
2021/08/08 11:29:58;;;;;;;57.30;2.00;;;33.50;1.00;;;;;;5074897;28;20494;-75
2021/08/08 11:32:30;;;;;;;57.10;1.87;;;33.80;1.00;;;;;;5075024;28;20495;-74
2021/08/08 11:35:01;;;;;;;56.97;1.70;;;33.70;1.00;;;;;;5075202;28;20447;-74
2021/08/08 11:37:33;;;;;;;56.97;2.00;;;33.00;1.00;;;;;;5075026;28;20452;-75
2021/08/08 11:40:00;;;;;;;57.20;1.80;;;32.10;1.00;;;;;;5074817;28;20466;-76
2021/08/08 11:42:31;;;;;;;57.07;1.80;;;31.80;1.00;;;;;;5074878;28;21026;-75
2021/08/08 11:44:58;;;;;;;57.07;1.93;;;31.60;1.00;;;;;;5075100;28;20458;-74
2021/08/08 11:47:26;;;;;;;57.33;2.00;;;31.00;1.00;;;;;;5074651;28;20458;-72
2021/08/08 11:49:55;;;;;;;57.43;2.10;;;30.20;1.00;;;;;;5074642;28;20505;-74
2021/08/08 11:52:22;;;;;;;57.47;1.90;;;28.90;1.00;;;;;;5074591;28;20555;-75
2021/08/08 11:55:01;;;;;;;57.80;2.00;;;27.80;1.00;;;;;;5074679;28;20443;-74
2021/08/08 11:57:31;;;;;;;57.57;1.90;;;26.70;1.00;;;;;;5074699;28;20537;-74
2021/08/08 11:59:58;;;;;;;57.57;1.77;;;25.90;1.00;;;;;;5074521;28;20505;-73
2021/08/08 12:02:27;;;;;;;57.83;2.00;;;25.30;1.00;;;;;;5074788;28;20474;-74
2021/08/08 12:04:56;;;;;;;58.10;2.40;;;24.70;1.00;;;;;;5074158;28;20501;-71
2021/08/08 12:07:24;;;;;;;57.67;2.30;;;24.00;1.00;;;;;;5074445;28;20937;-72
2021/08/08 12:09:52;;;;;;;58.03;2.27;;;23.40;1.00;;;;;;5072570;28;20511;-71
2021/08/08 12:12:19;;;;;;;58.20;2.50;;;23.00;1.00;;;;;;5073245;28;20561;-71
2021/08/08 12:14:48;;;;;;;57.67;1.93;;;23.00;1.00;;;;;;5074706;28;20450;-72
2021/08/08 12:17:16;;;;;;;57.63;1.90;;;24.00;1.00;;;;;;5074191;28;20448;-73
2021/08/08 12:19:44;;;;;;;57.60;2.20;;;24.20;1.00;;;;;;5073795;28;20544;-73
2021/08/08 12:22:15;;;;;;;57.90;1.97;;;23.90;1.00;;;;;;5074102;28;20575;-73
2021/08/08 12:24:43;;;;;;;60.23;2.80;;;23.30;1.00;;;;;;5074250;28;20817;-73
2021/08/08 12:27:11;;;;;;;57.87;2.30;;;22.70;1.00;;;;;;5074380;28;20454;-73
2021/08/08 12:29:40;;;;;;;57.90;2.13;;;22.20;1.00;;;;;;5073751;28;20495;-73
2021/08/08 12:32:15;;;;;;;57.77;2.27;;;21.70;1.00;;;;;;5073829;28;20558;-73
2021/08/08 12:34:44;;;;;;;57.43;2.20;;;21.50;1.00;;;;;;5074127;28;20453;-73
2021/08/08 12:37:13;;;;;;;57.57;1.90;;;21.90;1.00;;;;;;5073819;28;20971;-74
2021/08/08 12:39:41;;;;;;;57.80;2.10;;;23.70;1.00;;;;;;5072383;28;20530;-74
2021/08/08 12:42:23;;;;;;;57.50;1.90;;;25.60;1.00;;;;;;5053262;28;20474;-73
2021/08/08 12:45:00;;;;;;;57.53;1.90;;;27.40;1.00;;;;;;5053694;28;20443;-73